createdAt,value
2018-08-24T00:00:14.301Z,99.90
2018-08-24T00:02:42.871Z,99.90
2018-08-24T00:05:11.445Z,99.90
2018-08-24T00:07:40.036Z,99.90
2018-08-24T00:10:08.644Z,99.90
2018-08-24T00:12:37.207Z,99.90
2018-08-24T00:15:06.253Z,99.90
2018-08-24T00:17:35.161Z,99.90
2018-08-24T00:20:03.792Z,99.90
2018-08-24T00:22:32.448Z,99.90
2018-08-24T00:25:01.388Z,99.90
2018-08-24T00:27:29.982Z,99.90
2018-08-24T00:29:58.722Z,99.90
2018-08-24T00:32:27.306Z,99.90
2018-08-24T00:34:56.088Z,99.90
2018-08-24T00:37:24.664Z,99.90
2018-08-24T00:39:53.389Z,99.90
2018-08-24T00:42:22.047Z,99.90
2018-08-24T00:44:50.743Z,99.90
2018-08-24T00:47:19.314Z,99.90
2018-08-24T00:49:48.017Z,99.90
2018-08-24T00:52:16.593Z,99.90
2018-08-24T00:54:45.256Z,99.90
2018-08-24T00:57:13.870Z,99.90
2018-08-24T00:59:42.474Z,99.90
2018-08-24T01:02:11.052Z,99.90
2018-08-24T01:04:40.771Z,99.90
2018-08-24T01:07:12.689Z,99.90
2018-08-24T01:09:41.894Z,99.90
2018-08-24T01:12:14.596Z,99.90
2018-08-24T01:14:44.574Z,99.90
2018-08-24T01:17:18.561Z,99.90
2018-08-24T01:19:47.781Z,99.90
2018-08-24T01:22:16.518Z,99.90
2018-08-24T01:24:45.280Z,99.90
2018-08-24T01:27:13.979Z,99.90
2018-08-24T01:29:43.381Z,99.90
2018-08-24T01:32:12.216Z,99.90
2018-08-24T01:34:40.754Z,99.90
2018-08-24T01:37:09.328Z,99.90
2018-08-24T01:39:37.884Z,99.90
2018-08-24T01:42:06.469Z,99.90
2018-08-24T01:44:35.032Z,99.90
2018-08-24T01:47:03.636Z,99.90
2018-08-24T01:49:32.345Z,99.90
2018-08-24T01:52:01.200Z,99.90
2018-08-24T01:54:29.759Z,99.90
2018-08-24T01:56:58.358Z,99.90
2018-08-24T01:59:26.991Z,99.90
2018-08-24T02:01:55.813Z,99.90
2018-08-24T02:04:24.520Z,99.90
2018-08-24T02:06:53.264Z,99.90
2018-08-24T02:09:22.843Z,99.90
2018-08-24T02:11:51.722Z,99.90
2018-08-24T02:14:25.775Z,99.90
2018-08-24T02:16:54.385Z,99.90
2018-08-24T02:19:28.116Z,99.90
2018-08-24T02:22:02.141Z,99.90
2018-08-24T02:24:30.736Z,99.90
2018-08-24T02:26:59.476Z,99.90
2018-08-24T02:29:27.984Z,99.90
2018-08-24T02:31:56.522Z,99.90
2018-08-24T02:34:25.217Z,99.90
2018-08-24T02:36:53.740Z,99.90
2018-08-24T02:39:22.353Z,99.90
2018-08-24T02:41:51.097Z,99.90
2018-08-24T02:44:19.754Z,99.90
2018-08-24T02:46:48.542Z,99.90
2018-08-24T02:49:17.069Z,99.90
2018-08-24T02:51:45.659Z,99.90
2018-08-24T02:54:14.187Z,99.90
2018-08-24T02:56:42.812Z,99.90
2018-08-24T02:59:11.529Z,99.90
2018-08-24T03:01:40.103Z,99.90
2018-08-24T03:04:08.614Z,99.90
2018-08-24T03:06:37.213Z,99.90
2018-08-24T03:09:09.279Z,99.90
2018-08-24T03:11:37.854Z,99.90
2018-08-24T03:14:06.526Z,99.90
2018-08-24T03:16:35.184Z,99.90
2018-08-24T03:19:03.895Z,99.90
2018-08-24T03:21:32.439Z,99.90
2018-08-24T03:24:01.063Z,99.90
2018-08-24T03:26:29.653Z,99.90
2018-08-24T03:28:58.195Z,99.90
2018-08-24T03:31:26.740Z,99.90
2018-08-24T03:33:55.421Z,99.90
2018-08-24T03:36:23.935Z,99.90
2018-08-24T03:38:52.899Z,99.90
2018-08-24T03:41:21.571Z,99.90
2018-08-24T03:43:50.316Z,99.90
2018-08-24T03:46:18.979Z,99.90
2018-08-24T03:48:47.474Z,99.90
2018-08-24T03:51:16.132Z,99.90
2018-08-24T03:53:44.765Z,99.90
2018-08-24T03:56:13.421Z,99.90
2018-08-24T03:58:41.986Z,99.90
2018-08-24T04:01:10.647Z,99.90
2018-08-24T04:03:39.211Z,99.90
2018-08-24T04:06:07.935Z,99.90
2018-08-24T04:08:36.532Z,99.90
2018-08-24T04:11:05.595Z,99.90
2018-08-24T04:13:34.157Z,99.90
2018-08-24T04:16:02.752Z,99.90
2018-08-24T04:18:31.346Z,99.90
2018-08-24T04:20:59.881Z,99.90
2018-08-24T04:23:28.528Z,99.90
2018-08-24T04:25:57.143Z,99.90
2018-08-24T04:28:25.815Z,99.90
2018-08-24T04:30:54.449Z,99.90
2018-08-24T04:33:23.126Z,99.90
2018-08-24T04:35:51.766Z,99.90
2018-08-24T04:38:20.271Z,99.90
2018-08-24T04:40:48.935Z,99.90
2018-08-24T04:43:17.498Z,99.90
2018-08-24T04:45:46.092Z,99.90
2018-08-24T04:48:14.693Z,99.90
2018-08-24T04:50:43.359Z,99.90
2018-08-24T04:53:11.987Z,99.90
2018-08-24T04:55:40.506Z,99.90
2018-08-24T04:58:09.271Z,99.90
2018-08-24T05:00:37.779Z,99.90
2018-08-24T05:03:06.516Z,99.90
2018-08-24T05:05:35.067Z,99.90
2018-08-24T05:08:03.689Z,99.90
2018-08-24T05:10:32.336Z,99.90
2018-08-24T05:13:01.601Z,99.90
2018-08-24T05:15:30.258Z,99.90
2018-08-24T05:17:59.059Z,99.90
2018-08-24T05:20:27.579Z,99.90
2018-08-24T05:22:56.327Z,99.90
2018-08-24T05:25:24.950Z,99.90
2018-08-24T05:27:53.498Z,99.90
2018-08-24T05:30:22.426Z,99.90
2018-08-24T05:32:51.072Z,99.90
2018-08-24T05:35:19.812Z,99.90
2018-08-24T05:37:48.619Z,99.90
2018-08-24T05:40:17.370Z,99.90
2018-08-24T05:42:46.213Z,99.90
2018-08-24T05:45:14.730Z,99.90
2018-08-24T05:47:43.289Z,99.90
2018-08-24T05:50:11.917Z,99.90
2018-08-24T05:52:40.497Z,99.90
2018-08-24T05:55:09.096Z,99.90
2018-08-24T05:57:37.700Z,99.90
2018-08-24T06:00:06.498Z,99.90
2018-08-24T06:02:35.128Z,99.90
2018-08-24T06:05:03.871Z,99.90
2018-08-24T06:07:32.498Z,99.90
2018-08-24T06:10:01.004Z,99.90
2018-08-24T06:12:29.560Z,99.90
2018-08-24T06:14:58.468Z,99.90
2018-08-24T06:17:32.612Z,99.90
2018-08-24T06:20:01.281Z,99.90
2018-08-24T06:22:29.938Z,99.90
2018-08-24T06:24:58.666Z,99.90
2018-08-24T06:27:27.207Z,99.90
2018-08-24T06:29:55.832Z,99.90
2018-08-24T06:32:24.368Z,99.90
2018-08-24T06:34:53.544Z,99.90
2018-08-24T06:37:22.466Z,99.90
2018-08-24T06:39:50.975Z,99.90
2018-08-24T06:42:19.724Z,99.90
2018-08-24T06:44:48.705Z,99.90
2018-08-24T06:47:17.353Z,99.90
2018-08-24T06:49:45.849Z,99.90
2018-08-24T06:52:14.466Z,99.90
2018-08-24T06:54:42.982Z,99.90
2018-08-24T06:57:11.979Z,99.90
2018-08-24T06:59:40.548Z,99.90
2018-08-24T07:02:09.207Z,99.90
2018-08-24T07:04:37.826Z,99.90
2018-08-24T07:07:06.511Z,99.90
2018-08-24T07:09:36.237Z,99.90
2018-08-24T07:12:04.889Z,99.90
2018-08-24T07:14:33.520Z,99.90
2018-08-24T07:17:02.284Z,99.90
2018-08-24T07:19:31.490Z,99.90
2018-08-24T07:22:00.579Z,99.90
2018-08-24T07:24:29.083Z,99.90
2018-08-24T07:26:58.221Z,99.90
2018-08-24T07:29:27.165Z,99.90
2018-08-24T07:31:55.806Z,99.90
2018-08-24T07:34:24.487Z,99.90
2018-08-24T07:36:53.195Z,99.90
2018-08-24T07:39:22.054Z,99.90
2018-08-24T07:41:50.641Z,99.90
2018-08-24T07:44:19.244Z,99.90
2018-08-24T07:46:47.877Z,99.90
2018-08-24T07:49:16.701Z,99.90
2018-08-24T07:51:45.361Z,99.90
2018-08-24T07:54:14.018Z,99.90
2018-08-24T07:56:42.637Z,99.90
2018-08-24T07:59:11.281Z,99.90
2018-08-24T08:01:39.896Z,99.90
2018-08-24T08:04:08.590Z,99.90
2018-08-24T08:06:37.228Z,99.90
2018-08-24T08:09:07.823Z,99.90
2018-08-24T08:11:40.323Z,99.90
2018-08-24T08:14:09.503Z,99.90
2018-08-24T08:16:38.146Z,99.90
2018-08-24T08:19:06.875Z,99.90
2018-08-24T08:21:35.533Z,99.90
2018-08-24T08:24:04.207Z,99.90
2018-08-24T08:26:32.803Z,99.90
2018-08-24T08:29:01.675Z,99.90
2018-08-24T08:31:30.376Z,99.90
2018-08-24T08:33:59.014Z,99.90
2018-08-24T08:36:27.714Z,99.90
2018-08-24T08:38:56.401Z,99.90
2018-08-24T08:41:25.328Z,99.90
2018-08-24T08:43:53.983Z,99.90
2018-08-24T08:46:22.648Z,99.90
2018-08-24T08:48:51.381Z,99.90
2018-08-24T08:51:20.298Z,99.90
2018-08-24T08:53:49.026Z,99.90
2018-08-24T08:56:17.719Z,99.90
2018-08-24T08:58:46.384Z,99.90
2018-08-24T09:01:15.120Z,99.90
2018-08-24T09:03:43.746Z,99.90
2018-08-24T09:06:12.604Z,99.90
2018-08-24T09:08:41.157Z,99.90
2018-08-24T09:11:09.712Z,99.90
2018-08-24T09:13:38.726Z,99.90
2018-08-24T09:16:07.458Z,99.90
2018-08-24T09:18:41.647Z,99.90
2018-08-24T09:21:15.469Z,99.90
2018-08-24T09:23:49.332Z,99.90
2018-08-24T09:26:23.220Z,99.90
2018-08-24T09:28:53.542Z,99.90
2018-08-24T09:31:26.584Z,99.90
2018-08-24T09:33:55.255Z,99.90
2018-08-24T09:36:24.388Z,99.90
2018-08-24T09:38:53.723Z,99.90
2018-08-24T09:41:22.357Z,99.90
2018-08-24T09:43:55.422Z,99.90
2018-08-24T09:46:29.249Z,99.90
2018-08-24T09:49:03.594Z,99.90
2018-08-24T09:51:32.303Z,99.90
2018-08-24T09:54:05.290Z,99.90
2018-08-24T09:56:34.860Z,99.90
2018-08-24T09:59:03.751Z,99.90
2018-08-24T10:01:37.637Z,99.90
2018-08-24T10:04:12.027Z,99.90
2018-08-24T10:06:46.061Z,99.90
2018-08-24T10:09:15.690Z,99.90
2018-08-24T10:11:44.369Z,99.90
2018-08-24T10:14:13.317Z,99.90
2018-08-24T10:16:41.955Z,99.90
2018-08-24T10:19:12.276Z,99.90
2018-08-24T10:21:41.285Z,99.90
2018-08-24T10:24:10.366Z,99.90
2018-08-24T10:26:39.358Z,99.90
2018-08-24T10:29:08.643Z,99.90
2018-08-24T10:31:37.728Z,99.90
2018-08-24T10:34:06.691Z,99.90
2018-08-24T10:36:35.623Z,99.90
2018-08-24T10:39:06.319Z,99.90
2018-08-24T10:41:34.875Z,99.90
2018-08-24T10:44:04.262Z,99.90
2018-08-24T10:46:33.058Z,99.90
2018-08-24T10:49:01.920Z,99.90
2018-08-24T10:51:30.790Z,99.90
2018-08-24T10:53:59.443Z,99.90
2018-08-24T10:56:28.346Z,99.90
2018-08-24T10:58:57.527Z,99.90
2018-08-24T11:01:26.150Z,99.90
2018-08-24T11:03:54.747Z,99.90
2018-08-24T11:06:23.517Z,99.90
2018-08-24T11:08:52.274Z,99.90
2018-08-24T11:11:20.963Z,99.90
2018-08-24T11:13:49.564Z,99.90
2018-08-24T11:16:18.335Z,99.90
2018-08-24T11:18:47.426Z,99.90
2018-08-24T11:21:16.203Z,99.90
2018-08-24T11:23:45.028Z,99.90
2018-08-24T11:26:14.237Z,99.90
2018-08-24T11:28:43.134Z,99.90
2018-08-24T11:31:12.080Z,99.90
2018-08-24T11:33:40.897Z,99.90
2018-08-24T11:36:09.985Z,99.90
2018-08-24T11:38:38.391Z,99.90
2018-08-24T11:41:07.310Z,99.90
2018-08-24T11:43:35.931Z,99.90
2018-08-24T11:46:04.630Z,99.90
2018-08-24T11:48:33.429Z,99.90
2018-08-24T11:51:02.055Z,99.90
2018-08-24T11:53:30.662Z,99.90
2018-08-24T11:55:59.741Z,99.90
2018-08-24T11:58:28.455Z,99.90
2018-08-24T12:00:57.387Z,99.90
2018-08-24T12:03:26.046Z,99.90
2018-08-24T12:05:54.677Z,99.90
2018-08-24T12:08:23.404Z,99.90
2018-08-24T12:10:52.158Z,99.90
2018-08-24T12:13:20.929Z,99.90
2018-08-24T12:15:49.725Z,99.90
2018-08-24T12:18:18.635Z,99.90
2018-08-24T12:20:47.303Z,99.90
2018-08-24T12:23:16.163Z,99.90
2018-08-24T12:25:44.840Z,99.90
2018-08-24T12:28:16.376Z,99.90
2018-08-24T12:30:44.975Z,99.90
2018-08-24T12:33:13.842Z,99.90
2018-08-24T12:35:42.462Z,98.70
2018-08-24T12:38:11.217Z,95.90
2018-08-24T12:40:39.779Z,96.60
2018-08-24T12:43:08.507Z,96.30
2018-08-24T12:45:37.394Z,95.40
2018-08-24T12:48:06.092Z,95.30
2018-08-24T12:50:34.897Z,92.70
2018-08-24T12:53:03.664Z,92.60
2018-08-24T12:55:32.411Z,93.30
2018-08-24T12:58:01.024Z,92.80
2018-08-24T13:00:29.700Z,90.40
2018-08-24T13:02:58.464Z,90.50
2018-08-24T13:05:27.188Z,91.40
2018-08-24T13:07:55.927Z,91.50
2018-08-24T13:10:24.741Z,91.30
2018-08-24T13:12:53.320Z,90.50
2018-08-24T13:15:22.179Z,90.60
2018-08-24T13:17:50.883Z,89.80
2018-08-24T13:20:19.639Z,90.20
2018-08-24T13:22:48.214Z,89.80
2018-08-24T13:25:17.037Z,90.30
2018-08-24T13:27:45.695Z,90.90
2018-08-24T13:30:14.216Z,89.30
2018-08-24T13:32:42.932Z,90.40
2018-08-24T13:35:11.695Z,90.60
2018-08-24T13:37:40.430Z,90.20
2018-08-24T13:40:09.157Z,90.30
2018-08-24T13:42:38.042Z,90.40
2018-08-24T13:45:06.780Z,88.70
2018-08-24T13:47:35.797Z,89.00
2018-08-24T13:50:04.799Z,88.30
2018-08-24T13:52:33.616Z,87.70
2018-08-24T13:55:02.611Z,88.50
2018-08-24T13:57:31.413Z,87.70
2018-08-24T14:00:00.116Z,88.80
2018-08-24T14:02:28.829Z,89.70
2018-08-24T14:04:57.442Z,90.00
2018-08-24T14:07:26.333Z,90.00
2018-08-24T14:09:54.955Z,90.60
2018-08-24T14:12:24.038Z,90.20
2018-08-24T14:14:52.820Z,90.70
2018-08-24T14:17:21.508Z,91.00
2018-08-24T14:19:50.198Z,90.00
2018-08-24T14:22:18.871Z,89.80
2018-08-24T14:24:47.567Z,89.30
2018-08-24T14:27:16.219Z,88.80
2018-08-24T14:29:44.858Z,88.90
2018-08-24T14:32:14.454Z,88.50
2018-08-24T14:34:43.256Z,86.50
2018-08-24T14:37:12.024Z,87.40
2018-08-24T14:39:40.915Z,88.00
2018-08-24T14:42:09.688Z,89.70
2018-08-24T14:44:38.239Z,90.10
2018-08-24T14:47:07.083Z,90.10
2018-08-24T14:49:36.092Z,90.30
2018-08-24T14:52:04.807Z,90.40
2018-08-24T14:54:33.537Z,90.70
2018-08-24T14:57:02.386Z,90.20
2018-08-24T14:59:31.113Z,90.00
2018-08-24T15:01:59.947Z,90.10
2018-08-24T15:04:28.584Z,90.70
2018-08-24T15:06:57.420Z,90.30
2018-08-24T15:09:26.513Z,90.00
2018-08-24T15:11:55.257Z,90.00
2018-08-24T15:14:24.066Z,88.20
2018-08-24T15:16:52.866Z,89.10
2018-08-24T15:19:21.824Z,87.40
2018-08-24T15:21:50.573Z,88.40
2018-08-24T15:24:19.541Z,88.30
2018-08-24T15:26:48.483Z,88.70
2018-08-24T15:29:17.339Z,88.20
2018-08-24T15:31:46.571Z,88.50
2018-08-24T15:34:15.567Z,88.80
2018-08-24T15:36:44.824Z,88.00
2018-08-24T15:39:14.070Z,87.90
2018-08-24T15:41:43.294Z,87.60
2018-08-24T15:44:12.137Z,88.40
2018-08-24T15:46:40.962Z,87.80
2018-08-24T15:49:09.840Z,86.70
2018-08-24T15:51:39.134Z,87.50
2018-08-24T15:54:07.813Z,88.00
2018-08-24T15:56:36.692Z,88.00
2018-08-24T15:59:05.661Z,87.20
2018-08-24T16:01:34.287Z,86.50
2018-08-24T16:04:03.100Z,87.00
2018-08-24T16:06:31.960Z,86.60
2018-08-24T16:09:00.650Z,86.20
2018-08-24T16:11:29.325Z,87.10
2018-08-24T16:13:58.110Z,86.30
2018-08-24T16:16:26.941Z,86.90
2018-08-24T16:18:55.588Z,87.00
2018-08-24T16:21:24.492Z,87.70
2018-08-24T16:23:59.920Z,86.00
2018-08-24T16:26:28.840Z,84.70
2018-08-24T16:28:57.756Z,86.10
2018-08-24T16:31:26.530Z,85.80
2018-08-24T16:33:55.301Z,86.20
2018-08-24T16:36:24.087Z,86.50
2018-08-24T16:38:52.902Z,86.90
2018-08-24T16:41:21.537Z,87.80
2018-08-24T16:43:50.614Z,87.30
2018-08-24T16:46:19.200Z,88.50
2018-08-24T16:48:48.057Z,88.80
2018-08-24T16:51:16.731Z,88.30
2018-08-24T16:53:45.650Z,88.60
2018-08-24T16:56:14.362Z,89.90
2018-08-24T16:58:43.299Z,90.00
2018-08-24T17:01:12.292Z,90.30
2018-08-24T17:03:41.203Z,90.40
2018-08-24T17:06:10.115Z,90.90
2018-08-24T17:08:38.850Z,90.90
2018-08-24T17:11:07.706Z,90.80
2018-08-24T17:13:36.341Z,90.80
2018-08-24T17:16:05.059Z,90.50
2018-08-24T17:18:33.781Z,90.70
2018-08-24T17:21:02.381Z,90.50
2018-08-24T17:23:31.188Z,91.00
2018-08-24T17:25:59.988Z,91.30
2018-08-24T17:28:28.772Z,91.30
2018-08-24T17:30:57.563Z,90.90
2018-08-24T17:33:26.582Z,91.10
2018-08-24T17:35:55.392Z,91.40
2018-08-24T17:38:24.101Z,91.30
2018-08-24T17:40:53.083Z,91.40
2018-08-24T17:43:21.675Z,91.30
2018-08-24T17:45:50.422Z,91.40
2018-08-24T17:48:19.203Z,91.60
2018-08-24T17:50:48.112Z,91.50
2018-08-24T17:53:17.185Z,91.70
2018-08-24T17:55:45.881Z,91.60
2018-08-24T17:58:14.552Z,91.80
2018-08-24T18:00:43.245Z,91.70
2018-08-24T18:03:11.996Z,91.90
2018-08-24T18:05:41.061Z,92.00
2018-08-24T18:08:09.798Z,91.90
2018-08-24T18:10:38.764Z,92.20
2018-08-24T18:13:07.804Z,92.30
2018-08-24T18:15:36.454Z,92.50
2018-08-24T18:18:05.524Z,92.50
2018-08-24T18:20:34.402Z,92.60
2018-08-24T18:23:03.205Z,92.60
2018-08-24T18:25:31.921Z,92.80
2018-08-24T18:28:00.786Z,92.90
2018-08-24T18:30:29.605Z,93.00
2018-08-24T18:32:58.577Z,92.50
2018-08-24T18:35:27.240Z,92.80
2018-08-24T18:37:56.019Z,93.00
2018-08-24T18:40:24.815Z,93.00
2018-08-24T18:42:53.487Z,92.90
2018-08-24T18:45:22.309Z,93.40
2018-08-24T18:47:51.293Z,92.80
2018-08-24T18:50:19.981Z,93.30
2018-08-24T18:52:48.898Z,93.00
2018-08-24T18:55:17.621Z,93.00
2018-08-24T18:57:46.387Z,92.90
2018-08-24T19:00:14.995Z,92.90
2018-08-24T19:02:43.860Z,92.80
2018-08-24T19:05:12.679Z,93.00
2018-08-24T19:07:41.833Z,93.20
2018-08-24T19:10:10.578Z,93.30
2018-08-24T19:12:39.400Z,93.20
2018-08-24T19:15:08.240Z,93.00
2018-08-24T19:18:41.023Z,93.30
2018-08-24T19:21:14.882Z,93.40
2018-08-24T19:23:43.684Z,94.50
2018-08-24T19:26:12.452Z,93.70
2018-08-24T19:28:46.658Z,95.80
2018-08-24T19:31:15.355Z,95.00
2018-08-24T19:33:44.304Z,94.00
2018-08-24T19:36:13.085Z,94.00
2018-08-24T19:38:41.956Z,95.10
2018-08-24T19:41:16.352Z,95.60
2018-08-24T19:43:45.190Z,94.10
2018-08-24T19:46:14.392Z,94.90
2018-08-24T19:48:48.308Z,95.60
2018-08-24T19:51:17.258Z,95.20
2018-08-24T19:53:46.134Z,95.90
2018-08-24T19:56:15.196Z,96.10
2018-08-24T19:58:49.469Z,96.40
2018-08-24T20:01:18.061Z,96.80
2018-08-24T20:03:47.225Z,97.40
2018-08-24T20:06:21.406Z,98.10
2018-08-24T20:08:55.494Z,98.10
2018-08-24T20:11:24.090Z,98.00
2018-08-24T20:13:53.614Z,98.20
2018-08-24T20:16:27.917Z,98.30
2018-08-24T20:18:56.584Z,98.70
2018-08-24T20:21:25.482Z,99.10
2018-08-24T20:23:54.737Z,99.20
2018-08-24T20:26:23.662Z,99.10
2018-08-24T20:28:52.803Z,99.00
2018-08-24T20:31:21.657Z,99.10
2018-08-24T20:33:50.836Z,99.60
2018-08-24T20:36:19.772Z,99.90
2018-08-24T20:38:48.499Z,99.90
2018-08-24T20:41:17.391Z,99.90
2018-08-24T20:43:46.514Z,99.90
2018-08-24T20:46:15.266Z,99.90
2018-08-24T20:48:44.192Z,99.90
2018-08-24T20:51:13.771Z,99.90
2018-08-24T20:53:42.899Z,99.90
2018-08-24T20:56:11.679Z,99.90
2018-08-24T20:58:40.532Z,99.90
2018-08-24T21:01:09.418Z,99.90
2018-08-24T21:03:38.448Z,99.90
2018-08-24T21:06:07.301Z,99.90
2018-08-24T21:08:36.218Z,99.90
2018-08-24T21:11:05.328Z,99.90
2018-08-24T21:13:34.220Z,99.90
2018-08-24T21:16:03.571Z,99.90
2018-08-24T21:18:33.100Z,99.90
2018-08-24T21:21:01.856Z,99.90
2018-08-24T21:23:30.782Z,99.90
2018-08-24T21:25:59.551Z,99.90
2018-08-24T21:28:28.375Z,99.90
2018-08-24T21:30:57.542Z,99.90
2018-08-24T21:33:26.270Z,99.90
2018-08-24T21:35:54.848Z,99.90
2018-08-24T21:38:23.444Z,99.90
2018-08-24T21:40:52.286Z,99.90
2018-08-24T21:43:21.099Z,99.90
2018-08-24T21:45:49.953Z,99.90
2018-08-24T21:48:18.695Z,99.90
2018-08-24T21:50:47.487Z,99.90
2018-08-24T21:53:16.107Z,99.90
2018-08-24T21:55:44.910Z,99.90
2018-08-24T21:58:13.837Z,99.90
2018-08-24T22:00:43.160Z,99.90
2018-08-24T22:03:13.231Z,99.90
2018-08-24T22:05:42.215Z,99.90
2018-08-24T22:08:11.140Z,99.90
2018-08-24T22:10:39.958Z,99.90
2018-08-24T22:13:08.760Z,99.90
2018-08-24T22:15:37.447Z,99.90
2018-08-24T22:18:06.292Z,99.90
2018-08-24T22:20:35.093Z,99.90
2018-08-24T22:23:03.775Z,99.90
2018-08-24T22:25:32.360Z,99.90
2018-08-24T22:28:01.011Z,99.90
2018-08-24T22:30:29.980Z,99.90
2018-08-24T22:32:58.577Z,99.90
2018-08-24T22:35:27.301Z,99.90
2018-08-24T22:37:56.303Z,99.90
2018-08-24T22:40:24.920Z,99.90
2018-08-24T22:42:53.546Z,99.90
2018-08-24T22:45:23.734Z,99.90
2018-08-24T22:47:53.700Z,99.90
2018-08-24T22:50:22.543Z,99.90
2018-08-24T22:52:51.329Z,99.90
2018-08-24T22:55:19.935Z,99.90
2018-08-24T22:57:48.535Z,99.90
2018-08-24T23:00:17.347Z,99.90
2018-08-24T23:02:45.949Z,99.90
2018-08-24T23:05:14.627Z,99.90
2018-08-24T23:07:43.564Z,99.90
2018-08-24T23:10:12.218Z,99.90
2018-08-24T23:12:40.847Z,99.90
2018-08-24T23:15:09.535Z,99.90
2018-08-24T23:17:38.324Z,99.90
2018-08-24T23:20:07.359Z,99.90
2018-08-24T23:22:36.015Z,99.90
2018-08-24T23:25:04.738Z,99.90
2018-08-24T23:27:33.715Z,99.90
2018-08-24T23:30:02.507Z,99.90
2018-08-24T23:32:31.813Z,99.90
2018-08-24T23:35:00.416Z,99.90
2018-08-24T23:37:29.365Z,99.90
2018-08-24T23:39:57.955Z,99.90
2018-08-24T23:42:26.532Z,99.90
2018-08-24T23:44:55.136Z,99.90
2018-08-24T23:47:23.770Z,99.90
2018-08-24T23:49:52.595Z,99.90
2018-08-24T23:52:21.495Z,99.90
2018-08-24T23:54:50.237Z,99.90
2018-08-24T23:57:18.890Z,99.90
2018-08-24T23:59:47.598Z,99.90
